createdAt,value
2023-01-07T00:00:23.147Z,99129.03
2023-01-07T00:02:28.155Z,99124.03
2023-01-07T00:04:33.144Z,99119.84
2023-01-07T00:06:42.118Z,99121.56
2023-01-07T00:08:49.366Z,99119.06
2023-01-07T00:10:54.484Z,99110.69
2023-01-07T00:13:01.976Z,99109.03
2023-01-07T00:15:07.996Z,99104.00
2023-01-07T00:17:12.844Z,99114.88
2023-01-07T00:19:21.734Z,99113.22
2023-01-07T00:21:28.969Z,99117.41
2023-01-07T00:23:35.915Z,99123.25
2023-01-07T00:25:40.754Z,99121.59
2023-01-07T00:27:45.583Z,99119.91
2023-01-07T00:29:53.018Z,99109.88
2023-01-07T00:31:57.907Z,99099.00
2023-01-07T00:34:09.703Z,99104.78
2023-01-07T00:36:14.755Z,99104.00
2023-01-07T00:38:19.738Z,99089.84
2023-01-07T00:40:25.262Z,99099.88
2023-01-07T00:42:42.655Z,99091.50
2023-01-07T00:44:47.525Z,99089.78
2023-01-07T00:46:54.996Z,99084.72
2023-01-07T00:49:01.481Z,99088.09
2023-01-07T00:51:06.454Z,99092.22
2023-01-07T00:53:13.771Z,99089.75
2023-01-07T00:55:19.032Z,99082.22
2023-01-07T00:57:24.153Z,99075.47
2023-01-07T00:59:29.051Z,99079.59
2023-01-07T01:01:34.015Z,99074.63
2023-01-07T01:03:43.856Z,99071.34
2023-01-07T01:05:49.009Z,99071.22
2023-01-07T01:07:54.240Z,99066.19
2023-01-07T01:10:00.164Z,99072.97
2023-01-07T01:12:05.114Z,99073.03
2023-01-07T01:14:09.981Z,99072.19
2023-01-07T01:16:19.093Z,99071.44
2023-01-07T01:18:23.971Z,99065.59
2023-01-07T01:20:32.528Z,99069.88
2023-01-07T01:22:37.899Z,99060.78
2023-01-07T01:24:43.144Z,99055.69
2023-01-07T01:26:48.033Z,99058.25
2023-01-07T01:28:53.206Z,99059.97
2023-01-07T01:31:01.881Z,99064.22
2023-01-07T01:33:15.707Z,99061.66
2023-01-07T01:35:20.945Z,99055.88
2023-01-07T01:37:29.129Z,99063.47
2023-01-07T01:39:35.894Z,99054.22
2023-01-07T01:41:41.306Z,99059.22
2023-01-07T01:43:48.115Z,99050.03
2023-01-07T01:45:53.863Z,99045.91
2023-01-07T01:48:06.272Z,99053.50
2023-01-07T01:50:18.972Z,99051.06
2023-01-07T01:52:36.546Z,99058.59
2023-01-07T01:54:42.502Z,99051.94
2023-01-07T01:56:51.255Z,99053.69
2023-01-07T01:59:00.967Z,99048.72
2023-01-07T02:01:06.461Z,99046.19
2023-01-07T02:03:17.894Z,99050.31
2023-01-07T02:05:23.091Z,99037.78
2023-01-07T02:07:31.393Z,99037.78
2023-01-07T02:09:37.033Z,99030.25
2023-01-07T02:11:54.457Z,99037.00
2023-01-07T02:14:27.680Z,99030.34
2023-01-07T02:16:43.048Z,99032.84
2023-01-07T02:19:20.737Z,99033.66
2023-01-07T02:21:41.442Z,99028.69
2023-01-07T02:24:38.638Z,99027.94
2023-01-07T02:27:13.669Z,99024.66
2023-01-07T02:30:15.390Z,99023.88
2023-01-07T02:32:48.939Z,99027.22
2023-01-07T02:35:08.344Z,99027.19
2023-01-07T02:37:20.003Z,99023.81
2023-01-07T02:39:47.217Z,99020.41
2023-01-07T02:42:00.439Z,99026.22
2023-01-07T02:44:17.975Z,99026.25
2023-01-07T02:46:30.829Z,99027.88
2023-01-07T02:48:39.315Z,99024.59
2023-01-07T02:50:44.197Z,99019.53
2023-01-07T02:52:50.336Z,99017.13
2023-01-07T02:55:01.354Z,99022.22
2023-01-07T02:57:52.343Z,99020.59
2023-01-07T03:00:17.595Z,99022.28
2023-01-07T03:02:53.489Z,99020.66
2023-01-07T03:05:44.082Z,99022.41
2023-01-07T03:08:07.704Z,99019.13
2023-01-07T03:10:24.313Z,99022.50
2023-01-07T03:12:36.364Z,99009.19
2023-01-07T03:14:49.220Z,99007.41
2023-01-07T03:17:00.140Z,99009.06
2023-01-07T03:19:10.372Z,99009.03
2023-01-07T03:21:21.616Z,99012.31
2023-01-07T03:23:32.436Z,99016.50
2023-01-07T03:25:43.099Z,99009.06
2023-01-07T03:27:50.967Z,99015.78
2023-01-07T03:29:56.735Z,99010.69
2023-01-07T03:32:08.633Z,99009.78
2023-01-07T03:34:18.641Z,99008.97
2023-01-07T03:36:37.246Z,99004.00
2023-01-07T03:38:46.088Z,98999.00
2023-01-07T03:40:52.212Z,98998.94
2023-01-07T03:42:55.262Z,99002.28
2023-01-07T03:45:02.753Z,98998.03
2023-01-07T03:47:11.276Z,98990.50
2023-01-07T03:49:16.336Z,98990.50
2023-01-07T03:51:21.186Z,98995.47
2023-01-07T03:53:29.650Z,98985.41
2023-01-07T03:55:34.764Z,98983.75
2023-01-07T03:57:40.611Z,98980.41
2023-01-07T03:59:45.490Z,98987.09
2023-01-07T04:01:50.773Z,98976.22
2023-01-07T04:03:55.822Z,98977.91
2023-01-07T04:06:00.960Z,98967.88
2023-01-07T04:08:07.499Z,98972.09
2023-01-07T04:10:17.965Z,98967.94
2023-01-07T04:12:22.957Z,98963.81
2023-01-07T04:14:28.115Z,98964.59
2023-01-07T04:16:33.093Z,98958.78
2023-01-07T04:18:38.792Z,98957.13
2023-01-07T04:20:47.704Z,98957.13
2023-01-07T04:22:53.636Z,98950.41
2023-01-07T04:24:58.859Z,98940.38
2023-01-07T04:27:07.545Z,98933.72
2023-01-07T04:29:13.953Z,98937.06
2023-01-07T04:31:19.251Z,98935.41
2023-01-07T04:33:24.149Z,98933.72
2023-01-07T04:35:29.431Z,98937.03
2023-01-07T04:37:34.724Z,98937.03
2023-01-07T04:39:40.147Z,98931.22
2023-01-07T04:41:45.266Z,98932.06
2023-01-07T04:43:53.402Z,98941.25
2023-01-07T04:45:59.167Z,98938.75
2023-01-07T04:48:04.231Z,98933.75
2023-01-07T04:50:11.229Z,98933.72
2023-01-07T04:52:16.659Z,98935.34
2023-01-07T04:54:21.969Z,98933.72
2023-01-07T04:56:27.361Z,98937.13
2023-01-07T04:58:33.360Z,98938.75
2023-01-07T05:00:41.165Z,98936.28
2023-01-07T05:02:46.350Z,98933.78
2023-01-07T05:04:51.677Z,98933.78
2023-01-07T05:06:58.787Z,98926.28
2023-01-07T05:09:05.333Z,98925.44
2023-01-07T05:11:11.582Z,98922.03
2023-01-07T05:13:24.076Z,98920.31
2023-01-07T05:15:29.801Z,98915.28
2023-01-07T05:17:37.308Z,98916.88
2023-01-07T05:19:43.166Z,98913.53
2023-01-07T05:21:50.478Z,98905.16
2023-01-07T05:23:56.282Z,98908.50
2023-01-07T05:26:01.271Z,98910.16
2023-01-07T05:28:08.649Z,98903.50
2023-01-07T05:30:16.255Z,98906.84
2023-01-07T05:32:22.920Z,98901.78
2023-01-07T05:34:31.472Z,98896.75
2023-01-07T05:36:36.890Z,98890.09
2023-01-07T05:38:43.653Z,98898.47
2023-01-07T05:40:51.544Z,98888.47
2023-01-07T05:43:00.769Z,98885.19
2023-01-07T05:45:07.986Z,98890.22
2023-01-07T05:47:12.971Z,98885.19
2023-01-07T05:49:18.310Z,98887.72
2023-01-07T05:51:25.992Z,98886.88
2023-01-07T05:53:31.483Z,98886.88
2023-01-07T05:55:39.167Z,98878.50
2023-01-07T05:57:44.110Z,98886.03
2023-01-07T05:59:49.445Z,98880.25
2023-01-07T06:01:55.371Z,98880.31
2023-01-07T06:04:00.572Z,98872.00
2023-01-07T06:06:07.434Z,98876.28
2023-01-07T06:08:16.248Z,98870.56
2023-01-07T06:10:21.404Z,98867.34
2023-01-07T06:12:26.316Z,98870.75
2023-01-07T06:14:31.410Z,98868.25
2023-01-07T06:16:36.340Z,98859.97
2023-01-07T06:18:41.788Z,98863.31
2023-01-07T06:20:47.133Z,98855.00
2023-01-07T06:22:52.844Z,98857.53
2023-01-07T06:25:00.535Z,98859.25
2023-01-07T06:27:05.541Z,98853.41
2023-01-07T06:29:10.530Z,98856.78
2023-01-07T06:31:15.535Z,98856.81
2023-01-07T06:33:21.375Z,98858.66
2023-01-07T06:35:26.318Z,98854.66
2023-01-07T06:37:31.319Z,98854.72
2023-01-07T06:39:39.938Z,98853.88
2023-01-07T06:41:47.454Z,98853.00
2023-01-07T06:43:52.496Z,98851.31
2023-01-07T06:45:57.651Z,98842.06
2023-01-07T06:48:02.602Z,98837.78
2023-01-07T06:50:08.629Z,98842.75
2023-01-07T06:52:13.581Z,98839.28
2023-01-07T06:54:18.683Z,98839.28
2023-01-07T06:56:23.691Z,98835.88
2023-01-07T06:58:31.627Z,98835.78
2023-01-07T07:00:36.549Z,98832.41
2023-01-07T07:02:41.519Z,98832.47
2023-01-07T07:04:46.510Z,98840.81
2023-01-07T07:06:51.433Z,98832.53
2023-01-07T07:08:56.394Z,98825.78
2023-01-07T07:11:01.616Z,98834.25
2023-01-07T07:13:06.598Z,98836.78
2023-01-07T07:15:15.184Z,98832.66
2023-01-07T07:17:20.099Z,98821.03
2023-01-07T07:19:25.827Z,98829.25
2023-01-07T07:21:31.097Z,98825.91
2023-01-07T07:23:36.049Z,98825.94
2023-01-07T07:25:41.027Z,98828.44
2023-01-07T07:27:48.788Z,98827.53
2023-01-07T07:29:54.097Z,98830.78
2023-01-07T07:32:01.680Z,98833.31
2023-01-07T07:34:07.503Z,98829.09
2023-01-07T07:36:13.185Z,98818.19
2023-01-07T07:38:19.236Z,98818.94
2023-01-07T07:40:25.238Z,98815.53
2023-01-07T07:42:30.174Z,98815.47
2023-01-07T07:44:35.331Z,98813.72
2023-01-07T07:46:41.451Z,98813.69
2023-01-07T07:48:51.680Z,98818.66
2023-01-07T07:50:57.212Z,98816.94
2023-01-07T07:53:02.587Z,98806.84
2023-01-07T07:55:20.675Z,98806.84
2023-01-07T07:57:31.813Z,98805.16
2023-01-07T07:59:36.903Z,98803.47
2023-01-07T08:01:42.723Z,98802.56
2023-01-07T08:03:50.838Z,98800.91
2023-01-07T08:05:55.887Z,98807.53
2023-01-07T08:08:01.558Z,98800.84
2023-01-07T08:10:08.802Z,98803.31
2023-01-07T08:12:13.927Z,98798.25
2023-01-07T08:14:18.872Z,98798.22
2023-01-07T08:16:24.026Z,98793.97
2023-01-07T08:18:29.783Z,98794.00
2023-01-07T08:20:39.288Z,98791.47
2023-01-07T08:22:44.295Z,98793.16
2023-01-07T08:24:49.240Z,98789.00
2023-01-07T08:26:55.789Z,98784.81
2023-01-07T08:29:00.720Z,98784.81
2023-01-07T08:31:06.600Z,98787.28
2023-01-07T08:33:11.917Z,98781.34
2023-01-07T08:35:17.191Z,98787.13
2023-01-07T08:37:24.736Z,98783.72
2023-01-07T08:39:30.724Z,98783.66
2023-01-07T08:41:35.644Z,98782.78
2023-01-07T08:43:41.948Z,98781.88
2023-01-07T08:45:52.166Z,98777.63
2023-01-07T08:47:58.170Z,98779.31
2023-01-07T08:50:03.250Z,98772.56
2023-01-07T08:52:08.881Z,98767.50
2023-01-07T08:54:16.721Z,98770.69
2023-01-07T08:56:22.903Z,98771.34
2023-01-07T08:58:28.068Z,98769.63
2023-01-07T09:00:33.254Z,98768.66
2023-01-07T09:02:38.489Z,98776.16
2023-01-07T09:04:43.589Z,98761.88
2023-01-07T09:06:48.789Z,98762.59
2023-01-07T09:08:53.707Z,98757.34
2023-01-07T09:11:01.263Z,98759.81
2023-01-07T09:13:06.859Z,98753.00
2023-01-07T09:15:14.207Z,98748.69
2023-01-07T09:17:19.223Z,98751.34
2023-01-07T09:19:24.348Z,98751.41
2023-01-07T09:21:29.297Z,98751.41
2023-01-07T09:23:34.432Z,98752.25
2023-01-07T09:25:39.739Z,98753.06
2023-01-07T09:27:49.491Z,98755.50
2023-01-07T09:29:54.712Z,98756.16
2023-01-07T09:31:59.623Z,98750.38
2023-01-07T09:34:04.580Z,98754.59
2023-01-07T09:36:10.837Z,98752.16
2023-01-07T09:38:22.930Z,98750.38
2023-01-07T09:44:00.505Z,98754.66
2023-01-07T09:46:10.922Z,98758.75
2023-01-07T09:48:23.498Z,98756.16
2023-01-07T09:50:45.562Z,98759.56
2023-01-07T09:52:54.633Z,98752.88
2023-01-07T09:55:06.117Z,98758.66
2023-01-07T09:57:17.100Z,98751.09
2023-01-07T09:59:24.972Z,98750.31
2023-01-07T10:01:37.866Z,98750.94
2023-01-07T10:03:55.951Z,98745.91
2023-01-07T10:06:12.126Z,98740.97
2023-01-07T10:08:32.607Z,98735.22
2023-01-07T10:10:47.219Z,98736.84
2023-01-07T10:12:59.960Z,98733.25
2023-01-07T10:15:42.789Z,98732.47
2023-01-07T10:18:10.465Z,98729.22
2023-01-07T10:20:27.140Z,98730.66
2023-01-07T10:22:38.598Z,98731.53
2023-01-07T10:24:47.644Z,98729.00
2023-01-07T10:26:58.157Z,98722.25
2023-01-07T10:29:13.706Z,98716.41
2023-01-07T10:31:26.695Z,98716.41
2023-01-07T10:33:34.927Z,98717.22
2023-01-07T10:35:50.714Z,98712.19
2023-01-07T10:37:57.852Z,98708.91
2023-01-07T10:40:32.952Z,98705.63
2023-01-07T10:42:44.898Z,98697.34
2023-01-07T10:45:37.937Z,98691.56
2023-01-07T10:48:07.060Z,98683.31
2023-01-07T10:50:41.935Z,98684.25
2023-01-07T10:52:53.076Z,98679.22
2023-01-07T10:55:23.029Z,98671.75
2023-01-07T10:57:32.199Z,98666.63
2023-01-07T10:59:37.257Z,98670.72
2023-01-07T11:01:44.733Z,98663.94
2023-01-07T11:03:56.845Z,98655.69
2023-01-07T11:06:08.473Z,98650.44
2023-01-07T11:08:30.093Z,98641.19
2023-01-07T11:10:39.447Z,98634.38
2023-01-07T11:12:50.079Z,98619.09
2023-01-07T11:14:56.828Z,98623.41
2023-01-07T11:17:18.336Z,98613.34
2023-01-07T11:19:46.668Z,98606.53
2023-01-07T11:21:52.349Z,98606.56
2023-01-07T11:23:57.437Z,98592.28
2023-01-07T11:28:43.810Z,98592.41
2023-01-07T11:30:58.212Z,98596.47
2023-01-07T11:33:07.138Z,98586.44
2023-01-07T11:35:25.752Z,98592.28
2023-01-07T11:37:38.453Z,98579.75
2023-01-07T11:39:43.385Z,98575.53
2023-01-07T11:41:57.568Z,98577.28
2023-01-07T11:44:03.001Z,98572.91
2023-01-07T11:46:19.777Z,98562.88
2023-01-07T11:48:32.388Z,98567.97
2023-01-07T11:50:42.734Z,98557.84
2023-01-07T11:52:59.847Z,98560.22
2023-01-07T11:55:05.668Z,98550.91
2023-01-07T11:57:16.086Z,98553.25
2023-01-07T11:59:31.868Z,98551.50
2023-01-07T12:01:46.623Z,98547.31
2023-01-07T12:04:16.665Z,98542.38
2023-01-07T12:06:31.424Z,98538.91
2023-01-07T12:08:36.772Z,98540.44
2023-01-07T12:10:42.408Z,98529.53
2023-01-07T12:12:48.054Z,98527.78
2023-01-07T12:14:53.687Z,98529.47
2023-01-07T12:17:08.820Z,98527.66
2023-01-07T12:19:32.070Z,98517.53
2023-01-07T12:21:56.584Z,98515.84
2023-01-07T12:24:29.398Z,98509.88
2023-01-07T12:26:43.600Z,98513.19
2023-01-07T12:29:08.446Z,98505.66
2023-01-07T12:31:29.613Z,98507.59
2023-01-07T12:33:55.245Z,98500.25
2023-01-07T12:36:05.892Z,98501.16
2023-01-07T12:38:20.175Z,98492.84
2023-01-07T12:40:34.953Z,98487.06
2023-01-07T12:42:43.616Z,98476.09
2023-01-07T12:44:54.228Z,98465.00
2023-01-07T12:47:32.640Z,98467.63
2023-01-07T12:49:41.575Z,98464.78
2023-01-07T12:51:55.268Z,98453.19
2023-01-07T12:54:07.919Z,98458.22
2023-01-07T12:56:22.974Z,98450.66
2023-01-07T12:58:45.437Z,98452.06
2023-01-07T13:00:58.113Z,98442.69
2023-01-07T13:03:18.143Z,98438.50
2023-01-07T13:05:27.845Z,98432.53
2023-01-07T13:07:45.176Z,98437.22
2023-01-07T13:09:59.542Z,98433.22
2023-01-07T13:12:41.596Z,98427.44
2023-01-07T13:14:55.719Z,98425.69
2023-01-07T13:17:15.883Z,98428.88
2023-01-07T13:19:21.133Z,98424.13
2023-01-07T13:21:26.380Z,98424.06
2023-01-07T13:23:52.943Z,98405.28
2023-01-07T13:26:18.572Z,98397.84
2023-01-07T13:29:06.085Z,98397.66
2023-01-07T13:31:34.868Z,98391.91
2023-01-07T13:33:49.728Z,98400.38
2023-01-07T13:36:16.767Z,98395.22
2023-01-07T13:38:44.285Z,98392.94
2023-01-07T13:41:11.149Z,98400.63
2023-01-07T13:43:42.058Z,98400.81
2023-01-07T13:45:58.550Z,98393.34
2023-01-07T13:48:06.406Z,98395.88
2023-01-07T13:50:36.266Z,98395.78
2023-01-07T13:52:46.307Z,98397.69
2023-01-07T13:55:00.516Z,98395.31
2023-01-07T13:57:47.442Z,98392.78
2023-01-07T13:59:55.913Z,98386.97
2023-01-07T14:02:24.050Z,98382.91
2023-01-07T14:04:50.155Z,98386.25
2023-01-07T14:06:55.951Z,98380.34
2023-01-07T14:09:17.022Z,98381.97
2023-01-07T14:11:25.359Z,98383.88
2023-01-07T14:13:42.159Z,98380.50
2023-01-07T14:16:09.574Z,98373.00
2023-01-07T14:18:52.565Z,98378.97
2023-01-07T14:21:10.066Z,98374.75
2023-01-07T14:23:29.262Z,98375.69
2023-01-07T14:26:01.366Z,98384.06
2023-01-07T14:28:27.850Z,98382.63
2023-01-07T14:30:46.366Z,98392.09
2023-01-07T14:33:00.180Z,98387.09
2023-01-07T14:35:08.778Z,98379.59
2023-01-07T14:37:19.210Z,98378.03
2023-01-07T14:39:36.064Z,98375.53
2023-01-07T14:42:41.870Z,98389.03
2023-01-07T14:44:48.032Z,98374.97
2023-01-07T14:46:55.403Z,98376.41
2023-01-07T14:49:58.077Z,98365.66
2023-01-07T14:52:12.065Z,98379.00
2023-01-07T14:55:00.496Z,98375.78
2023-01-07T14:57:20.764Z,98372.56
2023-01-07T15:00:12.131Z,98374.31
2023-01-07T15:03:09.850Z,98367.75
2023-01-07T15:05:45.886Z,98374.63
2023-01-07T15:08:18.678Z,98364.44
2023-01-07T15:10:41.449Z,98365.25
2023-01-07T15:13:01.374Z,98358.56
2023-01-07T15:15:29.749Z,98365.53
2023-01-07T15:17:35.322Z,98361.56
2023-01-07T15:19:44.327Z,98359.06
2023-01-07T15:22:07.249Z,98358.28
2023-01-07T15:24:25.784Z,98358.25
2023-01-07T15:26:40.467Z,98360.06
2023-01-07T15:28:51.357Z,98352.69
2023-01-07T15:31:09.374Z,98345.09
2023-01-07T15:34:06.030Z,98343.53
2023-01-07T15:36:16.281Z,98331.03
2023-01-07T15:38:31.773Z,98329.47
2023-01-07T15:40:37.942Z,98332.09
2023-01-07T15:42:45.700Z,98337.16
2023-01-07T15:44:54.815Z,98330.53
2023-01-07T15:47:02.746Z,98337.25
2023-01-07T15:49:24.285Z,98329.81
2023-01-07T15:51:29.159Z,98335.69
2023-01-07T15:53:34.045Z,98325.72
2023-01-07T15:55:42.868Z,98323.38
2023-01-07T15:57:50.136Z,98314.31
2023-01-07T15:59:56.253Z,98319.97
2023-01-07T16:02:22.621Z,98323.41
2023-01-07T16:04:32.776Z,98327.69
2023-01-07T16:06:45.575Z,98319.53
2023-01-07T16:08:50.519Z,98321.25
2023-01-07T16:11:04.761Z,98321.31
2023-01-07T16:13:21.070Z,98321.31
2023-01-07T16:15:32.349Z,98322.13
2023-01-07T16:17:52.038Z,98327.91
2023-01-07T16:20:21.712Z,98325.38
2023-01-07T16:22:27.913Z,98327.91
2023-01-07T16:24:33.018Z,98327.91
2023-01-07T16:26:44.305Z,98322.06
2023-01-07T16:28:52.418Z,98322.88
2023-01-07T16:30:59.008Z,98318.84
2023-01-07T16:33:07.743Z,98316.31
2023-01-07T16:35:21.445Z,98312.84
2023-01-07T16:37:27.704Z,98315.50
2023-01-07T16:39:37.215Z,98323.16
2023-01-07T16:41:45.641Z,98305.91
2023-01-07T16:43:52.517Z,98312.72
2023-01-07T16:46:26.556Z,98318.59
2023-01-07T16:48:34.484Z,98325.19
2023-01-07T16:50:45.278Z,98316.94
2023-01-07T16:52:55.971Z,98322.97
2023-01-07T16:55:01.409Z,98322.47
2023-01-07T16:57:09.129Z,98317.63
2023-01-07T16:59:18.158Z,98321.13
2023-01-07T17:01:34.061Z,98317.94
2023-01-07T17:03:51.349Z,98311.28
2023-01-07T17:06:09.169Z,98305.31
2023-01-07T17:08:22.338Z,98308.59
2023-01-07T17:10:31.977Z,98309.34
2023-01-07T17:12:41.267Z,98305.16
2023-01-07T17:14:53.161Z,98298.47
2023-01-07T17:17:03.169Z,98308.44
2023-01-07T17:19:30.989Z,98304.13
2023-01-07T17:21:42.913Z,98305.66
2023-01-07T17:23:48.209Z,98306.44
2023-01-07T17:25:59.754Z,98299.00
2023-01-07T17:28:12.051Z,98289.75
2023-01-07T17:30:20.717Z,98282.28
2023-01-07T17:32:27.206Z,98288.97
2023-01-07T17:34:34.767Z,98290.41
2023-01-07T17:36:39.717Z,98279.44
2023-01-07T17:38:44.980Z,98270.88
2023-01-07T17:40:51.084Z,98276.69
2023-01-07T17:43:08.472Z,98275.75
2023-01-07T17:45:22.226Z,98273.56
2023-01-07T17:47:27.129Z,98270.41
2023-01-07T17:49:34.873Z,98270.34
2023-01-07T17:51:44.223Z,98263.81
2023-01-07T17:53:51.749Z,98257.19
2023-01-07T17:55:56.756Z,98263.03
2023-01-07T17:58:01.638Z,98261.88
2023-01-07T18:00:09.286Z,98271.69
2023-01-07T18:02:21.326Z,98263.94
2023-01-07T18:04:26.530Z,98264.72
2023-01-07T18:06:35.756Z,98262.38
2023-01-07T18:08:40.818Z,98268.53
2023-01-07T18:10:59.903Z,98260.59
2023-01-07T18:13:04.793Z,98259.19
2023-01-07T18:15:23.645Z,98262.47
2023-01-07T18:17:30.070Z,98269.56
2023-01-07T18:19:34.983Z,98264.47
2023-01-07T18:21:42.861Z,98269.63
2023-01-07T18:23:48.225Z,98278.00
2023-01-07T18:25:55.133Z,98278.28
2023-01-07T18:28:00.124Z,98273.34
2023-01-07T18:30:05.050Z,98273.59
2023-01-07T18:32:10.429Z,98273.97
2023-01-07T18:34:18.345Z,98274.38
2023-01-07T18:36:23.548Z,98259.72
2023-01-07T18:38:31.500Z,98264.75
2023-01-07T18:40:37.163Z,98268.44
2023-01-07T18:42:42.138Z,98265.16
2023-01-07T18:44:47.040Z,98258.47
2023-01-07T18:46:52.354Z,98253.03
2023-01-07T18:48:58.021Z,98261.31
2023-01-07T18:51:02.968Z,98262.28
2023-01-07T18:53:07.917Z,98254.81
2023-01-07T18:55:17.757Z,98244.97
2023-01-07T18:57:22.849Z,98239.22
2023-01-07T18:59:27.991Z,98245.47
2023-01-07T19:01:33.545Z,98237.28
2023-01-07T19:03:39.642Z,98248.97
2023-01-07T19:05:44.928Z,98248.16
2023-01-07T19:07:50.526Z,98254.91
2023-01-07T19:09:55.781Z,98254.91
2023-01-07T19:12:03.328Z,98255.72
2023-01-07T19:14:08.212Z,98252.41
2023-01-07T19:16:15.640Z,98247.34
2023-01-07T19:18:20.570Z,98254.91
2023-01-07T19:20:25.750Z,98258.34
2023-01-07T19:22:31.061Z,98256.03
2023-01-07T19:24:35.976Z,98250.47
2023-01-07T19:26:42.834Z,98255.53
2023-01-07T19:28:51.285Z,98246.38
2023-01-07T19:30:56.953Z,98252.19
2023-01-07T19:33:02.117Z,98245.53
2023-01-07T19:35:08.374Z,98243.69
2023-01-07T19:37:13.424Z,98240.28
2023-01-07T19:39:20.888Z,98235.25
2023-01-07T19:41:26.720Z,98233.59
2023-01-07T19:43:31.593Z,98223.69
2023-01-07T19:45:39.437Z,98220.16
2023-01-07T19:47:44.372Z,98221.69
2023-01-07T19:49:49.237Z,98220.00
2023-01-07T19:51:54.105Z,98206.69
2023-01-07T19:53:59.010Z,98196.00
2023-01-07T19:56:06.341Z,98191.81
2023-01-07T19:58:13.104Z,98184.41
2023-01-07T20:00:18.673Z,98186.94
2023-01-07T20:02:26.360Z,98183.41
2023-01-07T20:04:31.969Z,98181.63
2023-01-07T20:06:41.270Z,98193.31
2023-01-07T20:08:46.848Z,98188.44
2023-01-07T20:10:59.345Z,98189.44
2023-01-07T20:13:06.377Z,98182.03
2023-01-07T20:15:13.207Z,98177.97
2023-01-07T20:17:18.129Z,98182.47
2023-01-07T20:19:27.227Z,98179.41
2023-01-07T20:21:32.105Z,98170.41
2023-01-07T20:23:38.396Z,98167.97
2023-01-07T20:25:45.387Z,98174.56
2023-01-07T20:27:50.629Z,98166.25
2023-01-07T20:29:55.549Z,98166.16
2023-01-07T20:32:00.943Z,98170.31
2023-01-07T20:34:05.903Z,98172.88
2023-01-07T20:36:16.252Z,98161.13
2023-01-07T20:38:21.634Z,98164.41
2023-01-07T20:40:26.700Z,98165.28
2023-01-07T20:42:32.289Z,98164.41
2023-01-07T20:44:37.745Z,98164.41
2023-01-07T20:46:42.662Z,98155.22
2023-01-07T20:48:47.940Z,98156.03
2023-01-07T20:50:52.841Z,98157.56
2023-01-07T20:53:00.629Z,98153.22
2023-01-07T20:55:06.452Z,98155.75
2023-01-07T20:57:11.379Z,98155.88
2023-01-07T20:59:17.319Z,98150.00
2023-01-07T21:01:24.421Z,98146.56
2023-01-07T21:03:29.736Z,98146.63
2023-01-07T21:05:35.184Z,98147.47
2023-01-07T21:07:43.352Z,98155.81
2023-01-07T21:09:51.027Z,98152.28
2023-01-07T21:11:56.591Z,98151.47
2023-01-07T21:14:01.741Z,98153.97
2023-01-07T21:16:07.936Z,98149.13
2023-01-07T21:18:12.933Z,98152.41
2023-01-07T21:20:18.680Z,98146.63
2023-01-07T21:22:24.185Z,98142.34
2023-01-07T21:24:29.493Z,98137.28
2023-01-07T21:26:37.437Z,98143.16
2023-01-07T21:28:44.336Z,98144.06
2023-01-07T21:30:50.112Z,98142.19
2023-01-07T21:32:55.539Z,98134.41
2023-01-07T21:35:01.338Z,98127.53
2023-01-07T21:37:06.261Z,98133.94
2023-01-07T21:39:15.680Z,98132.97
2023-01-07T21:41:20.608Z,98121.19
2023-01-07T21:43:28.191Z,98115.38
2023-01-07T21:45:33.191Z,98117.03
2023-01-07T21:47:38.173Z,98109.63
2023-01-07T21:49:43.123Z,98117.16
2023-01-07T21:51:49.313Z,98114.66
2023-01-07T21:53:56.197Z,98114.66
2023-01-07T21:56:01.247Z,98099.53
2023-01-07T21:58:06.232Z,98099.41
2023-01-07T22:00:16.808Z,98098.69
2023-01-07T22:02:21.780Z,98101.38
2023-01-07T22:04:27.140Z,98098.25
2023-01-07T22:06:34.242Z,98082.72
2023-01-07T22:08:39.889Z,98089.63
2023-01-07T22:10:50.937Z,98097.34
2023-01-07T22:12:56.214Z,98105.81
2023-01-07T22:15:01.601Z,98100.94
2023-01-07T22:17:10.474Z,98106.00
2023-01-07T22:19:16.145Z,98109.34
2023-01-07T22:21:22.385Z,98111.00
2023-01-07T22:23:27.374Z,98119.41
2023-01-07T22:25:32.608Z,98117.69
2023-01-07T22:27:37.854Z,98112.78
2023-01-07T22:29:44.414Z,98111.16
2023-01-07T22:31:52.761Z,98114.50
2023-01-07T22:34:01.023Z,98112.94
2023-01-07T22:36:07.046Z,98101.19
2023-01-07T22:38:14.749Z,98102.91
2023-01-07T22:40:19.977Z,98098.75
2023-01-07T22:42:32.688Z,98097.84
2023-01-07T22:44:43.309Z,98089.69
2023-01-07T22:46:51.487Z,98085.53
2023-01-07T22:48:59.088Z,98079.81
2023-01-07T22:51:09.087Z,98083.28
2023-01-07T22:53:15.860Z,98089.13
2023-01-07T22:55:21.263Z,98082.50
2023-01-07T22:57:26.485Z,98084.97
2023-01-07T22:59:31.407Z,98074.91
2023-01-07T23:01:37.838Z,98076.53
2023-01-07T23:03:43.934Z,98069.81
2023-01-07T23:05:52.570Z,98060.66
2023-01-07T23:07:57.486Z,98059.72
2023-01-07T23:10:02.408Z,98063.69
2023-01-07T23:12:11.049Z,98056.88
2023-01-07T23:14:16.256Z,98057.59
2023-01-07T23:16:21.262Z,98059.91
2023-01-07T23:18:26.341Z,98057.19
2023-01-07T23:20:31.298Z,98055.13
2023-01-07T23:22:38.838Z,98048.13
2023-01-07T23:24:43.758Z,98046.06
2023-01-07T23:26:50.065Z,98034.72
2023-01-07T23:28:55.025Z,98038.31
2023-01-07T23:31:03.789Z,98039.78
2023-01-07T23:33:08.803Z,98038.50
2023-01-07T23:35:14.276Z,98042.19
2023-01-07T23:37:19.219Z,98029.19
2023-01-07T23:39:26.729Z,98029.16
2023-01-07T23:41:32.889Z,98026.50
2023-01-07T23:43:38.283Z,98023.19
2023-01-07T23:45:43.602Z,98021.47
2023-01-07T23:47:48.772Z,98022.94
2023-01-07T23:49:53.760Z,98016.78
2023-01-07T23:51:58.892Z,98014.22
2023-01-07T23:54:04.210Z,98010.94
2023-01-07T23:56:11.967Z,98003.81
2023-01-07T23:58:16.900Z,98012.84
